sensor_id;sensor_type;location;lat;lon;timestamp;temperature;humidity
12335;DHT22;6233;51.560;9.986;2023-02-27T00:02:18;-0.90;99.90
12335;DHT22;6233;51.560;9.986;2023-02-27T00:05:20;-0.90;99.90
12335;DHT22;6233;51.560;9.986;2023-02-27T00:08:25;-0.90;99.90
12335;DHT22;6233;51.560;9.986;2023-02-27T00:11:27;-0.90;99.90
12335;DHT22;6233;51.560;9.986;2023-02-27T00:14:29;-1.00;99.90
12335;DHT22;6233;51.560;9.986;2023-02-27T00:17:31;-1.00;99.90
12335;DHT22;6233;51.560;9.986;2023-02-27T00:20:33;-1.00;99.90
12335;DHT22;6233;51.560;9.986;2023-02-27T00:23:38;-1.00;99.90
12335;DHT22;6233;51.560;9.986;2023-02-27T00:26:40;-1.00;99.90
12335;DHT22;6233;51.560;9.986;2023-02-27T00:29:41;-1.00;99.90
12335;DHT22;6233;51.560;9.986;2023-02-27T00:32:43;-1.00;99.90
12335;DHT22;6233;51.560;9.986;2023-02-27T00:35:54;-1.00;99.90
12335;DHT22;6233;51.560;9.986;2023-02-27T00:38:55;-1.10;99.90
12335;DHT22;6233;51.560;9.986;2023-02-27T00:41:57;-1.00;99.90
12335;DHT22;6233;51.560;9.986;2023-02-27T00:44:59;-1.00;99.90
12335;DHT22;6233;51.560;9.986;2023-02-27T00:48:00;-1.10;99.90
12335;DHT22;6233;51.560;9.986;2023-02-27T00:51:02;-1.10;99.90
12335;DHT22;6233;51.560;9.986;2023-02-27T00:54:04;-1.10;99.90
12335;DHT22;6233;51.560;9.986;2023-02-27T00:57:06;-1.20;99.90
12335;DHT22;6233;51.560;9.986;2023-02-27T01:00:08;-1.30;99.90
12335;DHT22;6233;51.560;9.986;2023-02-27T01:03:10;-1.30;99.90
12335;DHT22;6233;51.560;9.986;2023-02-27T01:06:12;-1.30;99.90
12335;DHT22;6233;51.560;9.986;2023-02-27T01:09:14;-1.40;99.90
12335;DHT22;6233;51.560;9.986;2023-02-27T01:12:15;-1.50;99.90
12335;DHT22;6233;51.560;9.986;2023-02-27T01:15:17;-1.50;99.90
12335;DHT22;6233;51.560;9.986;2023-02-27T01:18:19;-1.50;99.90
12335;DHT22;6233;51.560;9.986;2023-02-27T01:21:21;-1.50;99.90
12335;DHT22;6233;51.560;9.986;2023-02-27T01:24:23;-1.50;99.90
12335;DHT22;6233;51.560;9.986;2023-02-27T01:27:25;-1.50;99.90
12335;DHT22;6233;51.560;9.986;2023-02-27T01:30:26;-1.60;99.90
12335;DHT22;6233;51.560;9.986;2023-02-27T01:33:28;-1.50;99.90
12335;DHT22;6233;51.560;9.986;2023-02-27T01:36:30;-1.60;99.90
12335;DHT22;6233;51.560;9.986;2023-02-27T01:39:31;-1.50;99.90
12335;DHT22;6233;51.560;9.986;2023-02-27T01:42:33;-1.60;99.90
12335;DHT22;6233;51.560;9.986;2023-02-27T01:45:39;-1.60;99.90
12335;DHT22;6233;51.560;9.986;2023-02-27T01:48:41;-1.60;99.90
12335;DHT22;6233;51.560;9.986;2023-02-27T01:51:48;-1.60;99.90
12335;DHT22;6233;51.560;9.986;2023-02-27T01:54:51;-1.60;99.90
12335;DHT22;6233;51.560;9.986;2023-02-27T01:57:53;-1.70;99.90
12335;DHT22;6233;51.560;9.986;2023-02-27T02:00:56;-1.60;99.90
12335;DHT22;6233;51.560;9.986;2023-02-27T02:07:14;-1.70;99.90
12335;DHT22;6233;51.560;9.986;2023-02-27T02:10:18;-1.70;99.90
12335;DHT22;6233;51.560;9.986;2023-02-27T02:13:21;-1.70;99.90
12335;DHT22;6233;51.560;9.986;2023-02-27T02:42:35;-1.80;99.90
12335;DHT22;6233;51.560;9.986;2023-02-27T02:46:08;-1.80;99.90
12335;DHT22;6233;51.560;9.986;2023-02-27T02:49:32;-1.80;99.90
12335;DHT22;6233;51.560;9.986;2023-02-27T02:53:50;-1.80;99.90
12335;DHT22;6233;51.560;9.986;2023-02-27T02:59:42;-1.90;99.90
12335;DHT22;6233;51.560;9.986;2023-02-27T03:02:49;-1.90;99.90
12335;DHT22;6233;51.560;9.986;2023-02-27T03:05:58;-2.00;99.90
12335;DHT22;6233;51.560;9.986;2023-02-27T03:09:24;-1.90;99.90
12335;DHT22;6233;51.560;9.986;2023-02-27T03:12:28;-1.90;99.90
12335;DHT22;6233;51.560;9.986;2023-02-27T03:15:40;-1.90;99.90
12335;DHT22;6233;51.560;9.986;2023-02-27T03:18:51;-2.00;99.90
12335;DHT22;6233;51.560;9.986;2023-02-27T03:22:16;-1.90;99.90
12335;DHT22;6233;51.560;9.986;2023-02-27T03:25:21;-2.00;99.90
12335;DHT22;6233;51.560;9.986;2023-02-27T03:28:26;-2.00;99.90
12335;DHT22;6233;51.560;9.986;2023-02-27T03:31:43;-2.00;99.90
12335;DHT22;6233;51.560;9.986;2023-02-27T03:34:47;-2.00;99.90
12335;DHT22;6233;51.560;9.986;2023-02-27T03:38:00;-2.00;99.90
12335;DHT22;6233;51.560;9.986;2023-02-27T03:44:39;-2.00;99.90
12335;DHT22;6233;51.560;9.986;2023-02-27T03:47:47;-2.00;99.90
12335;DHT22;6233;51.560;9.986;2023-02-27T03:50:48;-2.10;99.90
12335;DHT22;6233;51.560;9.986;2023-02-27T03:54:15;-2.10;99.90
12335;DHT22;6233;51.560;9.986;2023-02-27T03:57:20;-2.10;99.90
12335;DHT22;6233;51.560;9.986;2023-02-27T04:00:23;-2.20;99.90
12335;DHT22;6233;51.560;9.986;2023-02-27T04:03:26;-2.20;99.90
12335;DHT22;6233;51.560;9.986;2023-02-27T04:06:28;-2.20;99.90
12335;DHT22;6233;51.560;9.986;2023-02-27T04:10:03;-2.20;99.90
12335;DHT22;6233;51.560;9.986;2023-02-27T04:23:28;-2.30;99.90
12335;DHT22;6233;51.560;9.986;2023-02-27T04:26:52;-2.30;99.90
12335;DHT22;6233;51.560;9.986;2023-02-27T04:30:15;-2.20;99.90
12335;DHT22;6233;51.560;9.986;2023-02-27T04:36:41;-2.30;99.90
12335;DHT22;6233;51.560;9.986;2023-02-27T04:40:01;-2.20;99.90
12335;DHT22;6233;51.560;9.986;2023-02-27T04:43:08;-2.20;99.90
12335;DHT22;6233;51.560;9.986;2023-02-27T04:46:13;-2.20;99.90
12335;DHT22;6233;51.560;9.986;2023-02-27T04:49:21;-2.20;99.90
12335;DHT22;6233;51.560;9.986;2023-02-27T04:52:30;-2.30;99.90
12335;DHT22;6233;51.560;9.986;2023-02-27T04:55:36;-2.30;99.90
12335;DHT22;6233;51.560;9.986;2023-02-27T04:58:52;-2.30;99.90
12335;DHT22;6233;51.560;9.986;2023-02-27T05:01:58;-2.40;99.90
12335;DHT22;6233;51.560;9.986;2023-02-27T05:05:06;-2.30;99.90
12335;DHT22;6233;51.560;9.986;2023-02-27T05:08:20;-2.30;99.90
12335;DHT22;6233;51.560;9.986;2023-02-27T05:11:28;-2.40;99.90
12335;DHT22;6233;51.560;9.986;2023-02-27T05:14:42;-2.40;99.90
12335;DHT22;6233;51.560;9.986;2023-02-27T05:17:49;-2.50;99.90
12335;DHT22;6233;51.560;9.986;2023-02-27T05:34:24;-2.40;99.90
12335;DHT22;6233;51.560;9.986;2023-02-27T05:37:34;-2.50;99.90
12335;DHT22;6233;51.560;9.986;2023-02-27T05:40:42;-2.50;99.90
12335;DHT22;6233;51.560;9.986;2023-02-27T05:47:11;-2.40;99.90
12335;DHT22;6233;51.560;9.986;2023-02-27T05:50:22;-2.30;99.90
12335;DHT22;6233;51.560;9.986;2023-02-27T05:53:29;-2.30;99.90
12335;DHT22;6233;51.560;9.986;2023-02-27T05:56:35;-2.30;99.90
12335;DHT22;6233;51.560;9.986;2023-02-27T05:59:49;-2.40;99.90
12335;DHT22;6233;51.560;9.986;2023-02-27T06:02:54;-2.40;99.90
12335;DHT22;6233;51.560;9.986;2023-02-27T06:05:58;-2.50;99.90
12335;DHT22;6233;51.560;9.986;2023-02-27T06:09:00;-2.50;99.90
12335;DHT22;6233;51.560;9.986;2023-02-27T06:12:02;-2.60;99.90
12335;DHT22;6233;51.560;9.986;2023-02-27T06:15:04;-2.60;99.90
12335;DHT22;6233;51.560;9.986;2023-02-27T06:18:06;-2.70;99.90
12335;DHT22;6233;51.560;9.986;2023-02-27T06:21:08;-2.70;99.90
12335;DHT22;6233;51.560;9.986;2023-02-27T06:24:09;-2.70;99.90
12335;DHT22;6233;51.560;9.986;2023-02-27T06:27:11;-2.70;99.90
12335;DHT22;6233;51.560;9.986;2023-02-27T06:30:13;-2.60;99.90
12335;DHT22;6233;51.560;9.986;2023-02-27T06:33:15;-2.50;99.90
12335;DHT22;6233;51.560;9.986;2023-02-27T06:36:17;-2.40;99.90
12335;DHT22;6233;51.560;9.986;2023-02-27T06:39:18;-2.20;99.90
12335;DHT22;6233;51.560;9.986;2023-02-27T06:42:20;-2.10;99.90
12335;DHT22;6233;51.560;9.986;2023-02-27T06:45:22;-1.90;99.90
12335;DHT22;6233;51.560;9.986;2023-02-27T06:48:25;-1.70;99.90
12335;DHT22;6233;51.560;9.986;2023-02-27T06:51:26;-1.50;99.90
12335;DHT22;6233;51.560;9.986;2023-02-27T06:54:28;-1.20;99.90
12335;DHT22;6233;51.560;9.986;2023-02-27T06:57:30;-1.10;99.90
12335;DHT22;6233;51.560;9.986;2023-02-27T07:00:32;-0.90;99.90
12335;DHT22;6233;51.560;9.986;2023-02-27T07:03:34;-0.80;99.90
12335;DHT22;6233;51.560;9.986;2023-02-27T07:06:36;-0.70;99.90
12335;DHT22;6233;51.560;9.986;2023-02-27T07:09:57;-0.40;99.90
12335;DHT22;6233;51.560;9.986;2023-02-27T07:12:59;-0.20;99.90
12335;DHT22;6233;51.560;9.986;2023-02-27T07:16:01;0.10;99.90
12335;DHT22;6233;51.560;9.986;2023-02-27T07:19:03;0.30;99.90
12335;DHT22;6233;51.560;9.986;2023-02-27T07:22:05;0.50;99.90
12335;DHT22;6233;51.560;9.986;2023-02-27T07:25:07;0.70;99.90
12335;DHT22;6233;51.560;9.986;2023-02-27T07:28:09;0.90;99.90
12335;DHT22;6233;51.560;9.986;2023-02-27T07:31:11;1.00;99.90
12335;DHT22;6233;51.560;9.986;2023-02-27T07:34:13;1.20;99.90
12335;DHT22;6233;51.560;9.986;2023-02-27T07:37:16;1.60;99.90
12335;DHT22;6233;51.560;9.986;2023-02-27T07:40:17;1.70;99.90
12335;DHT22;6233;51.560;9.986;2023-02-27T07:43:19;1.80;99.90
12335;DHT22;6233;51.560;9.986;2023-02-27T07:46:21;1.80;99.90
12335;DHT22;6233;51.560;9.986;2023-02-27T07:49:24;1.90;99.90
12335;DHT22;6233;51.560;9.986;2023-02-27T07:52:26;2.10;99.90
12335;DHT22;6233;51.560;9.986;2023-02-27T07:55:27;2.10;99.90
12335;DHT22;6233;51.560;9.986;2023-02-27T07:58:29;2.30;99.90
12335;DHT22;6233;51.560;9.986;2023-02-27T08:01:31;2.30;99.90
12335;DHT22;6233;51.560;9.986;2023-02-27T08:04:32;2.50;99.90
12335;DHT22;6233;51.560;9.986;2023-02-27T08:07:34;2.50;99.90
12335;DHT22;6233;51.560;9.986;2023-02-27T08:10:37;2.50;99.90
12335;DHT22;6233;51.560;9.986;2023-02-27T08:13:38;2.70;99.90
12335;DHT22;6233;51.560;9.986;2023-02-27T08:17:00;2.80;99.90
12335;DHT22;6233;51.560;9.986;2023-02-27T08:20:02;3.10;99.90
12335;DHT22;6233;51.560;9.986;2023-02-27T08:23:05;3.30;99.90
12335;DHT22;6233;51.560;9.986;2023-02-27T08:26:07;3.50;99.90
12335;DHT22;6233;51.560;9.986;2023-02-27T08:29:09;3.60;99.90
12335;DHT22;6233;51.560;9.986;2023-02-27T08:32:11;3.80;99.90
12335;DHT22;6233;51.560;9.986;2023-02-27T08:35:12;4.00;99.90
12335;DHT22;6233;51.560;9.986;2023-02-27T08:38:14;4.20;99.90
12335;DHT22;6233;51.560;9.986;2023-02-27T08:41:16;4.30;99.90
12335;DHT22;6233;51.560;9.986;2023-02-27T08:44:18;4.60;99.90
12335;DHT22;6233;51.560;9.986;2023-02-27T08:47:21;4.90;99.90
12335;DHT22;6233;51.560;9.986;2023-02-27T08:50:22;5.20;99.90
12335;DHT22;6233;51.560;9.986;2023-02-27T08:53:24;5.20;99.90
12335;DHT22;6233;51.560;9.986;2023-02-27T08:56:27;5.20;99.90
12335;DHT22;6233;51.560;9.986;2023-02-27T08:59:30;5.10;99.90
12335;DHT22;6233;51.560;9.986;2023-02-27T09:02:31;5.20;99.90
12335;DHT22;6233;51.560;9.986;2023-02-27T09:05:33;5.30;99.90
12335;DHT22;6233;51.560;9.986;2023-02-27T09:08:35;5.20;99.90
12335;DHT22;6233;51.560;9.986;2023-02-27T09:11:37;5.20;99.90
12335;DHT22;6233;51.560;9.986;2023-02-27T09:14:39;5.30;99.90
12335;DHT22;6233;51.560;9.986;2023-02-27T09:17:41;5.30;99.90
12335;DHT22;6233;51.560;9.986;2023-02-27T09:20:42;5.40;99.90
12335;DHT22;6233;51.560;9.986;2023-02-27T09:23:45;5.30;99.90
12335;DHT22;6233;51.560;9.986;2023-02-27T09:26:47;5.20;99.90
12335;DHT22;6233;51.560;9.986;2023-02-27T09:29:50;5.10;99.90
12335;DHT22;6233;51.560;9.986;2023-02-27T09:32:56;5.10;99.90
12335;DHT22;6233;51.560;9.986;2023-02-27T09:35:58;5.20;99.90
12335;DHT22;6233;51.560;9.986;2023-02-27T09:39:00;5.10;99.90
12335;DHT22;6233;51.560;9.986;2023-02-27T09:42:11;5.10;99.90
12335;DHT22;6233;51.560;9.986;2023-02-27T09:45:23;5.20;99.90
12335;DHT22;6233;51.560;9.986;2023-02-27T09:51:30;5.20;99.90
12335;DHT22;6233;51.560;9.986;2023-02-27T09:54:32;5.10;99.90
12335;DHT22;6233;51.560;9.986;2023-02-27T10:01:19;5.60;99.90
12335;DHT22;6233;51.560;9.986;2023-02-27T10:11:04;5.50;99.90
12335;DHT22;6233;51.560;9.986;2023-02-27T10:14:31;5.20;99.90
12335;DHT22;6233;51.560;9.986;2023-02-27T10:17:50;5.10;99.90
12335;DHT22;6233;51.560;9.986;2023-02-27T10:21:07;5.60;99.90
12335;DHT22;6233;51.560;9.986;2023-02-27T10:24:28;6.20;99.90
12335;DHT22;6233;51.560;9.986;2023-02-27T10:27:31;6.40;99.90
12335;DHT22;6233;51.560;9.986;2023-02-27T10:30:34;6.50;99.90
12335;DHT22;6233;51.560;9.986;2023-02-27T10:33:38;6.40;99.90
12335;DHT22;6233;51.560;9.986;2023-02-27T10:36:41;6.10;99.90
12335;DHT22;6233;51.560;9.986;2023-02-27T10:39:51;6.00;99.90
12335;DHT22;6233;51.560;9.986;2023-02-27T10:42:54;5.80;99.90
12335;DHT22;6233;51.560;9.986;2023-02-27T10:46:01;5.50;99.90
12335;DHT22;6233;51.560;9.986;2023-02-27T10:49:19;5.50;99.90
12335;DHT22;6233;51.560;9.986;2023-02-27T10:52:21;5.20;99.90
12335;DHT22;6233;51.560;9.986;2023-02-27T10:55:35;5.30;99.90
12335;DHT22;6233;51.560;9.986;2023-02-27T10:58:38;5.40;99.90
12335;DHT22;6233;51.560;9.986;2023-02-27T11:01:47;5.80;99.90
12335;DHT22;6233;51.560;9.986;2023-02-27T11:04:55;6.10;99.90
12335;DHT22;6233;51.560;9.986;2023-02-27T11:11:13;5.50;99.90
12335;DHT22;6233;51.560;9.986;2023-02-27T11:14:24;5.10;99.90
12335;DHT22;6233;51.560;9.986;2023-02-27T11:17:29;4.80;99.90
12335;DHT22;6233;51.560;9.986;2023-02-27T11:20:34;4.70;99.90
12335;DHT22;6233;51.560;9.986;2023-02-27T11:23:37;4.80;99.90
12335;DHT22;6233;51.560;9.986;2023-02-27T11:26:51;4.90;99.90
12335;DHT22;6233;51.560;9.986;2023-02-27T11:33:00;5.00;99.90
12335;DHT22;6233;51.560;9.986;2023-02-27T11:36:03;5.10;99.90
12335;DHT22;6233;51.560;9.986;2023-02-27T11:39:05;5.30;99.90
12335;DHT22;6233;51.560;9.986;2023-02-27T11:42:15;5.30;99.90
12335;DHT22;6233;51.560;9.986;2023-02-27T11:45:26;5.20;99.90
12335;DHT22;6233;51.560;9.986;2023-02-27T11:52:35;4.70;99.90
12335;DHT22;6233;51.560;9.986;2023-02-27T11:55:39;4.70;99.90
12335;DHT22;6233;51.560;9.986;2023-02-27T11:58:48;4.70;99.90
12335;DHT22;6233;51.560;9.986;2023-02-27T12:02:27;4.80;99.90
12335;DHT22;6233;51.560;9.986;2023-02-27T12:05:46;4.80;99.90
12335;DHT22;6233;51.560;9.986;2023-02-27T12:08:53;4.90;99.90
12335;DHT22;6233;51.560;9.986;2023-02-27T12:11:56;4.80;99.90
12335;DHT22;6233;51.560;9.986;2023-02-27T12:15:25;4.80;99.90
12335;DHT22;6233;51.560;9.986;2023-02-27T12:18:39;4.70;99.90
12335;DHT22;6233;51.560;9.986;2023-02-27T12:21:51;4.70;99.90
12335;DHT22;6233;51.560;9.986;2023-02-27T12:25:11;4.70;99.90
12335;DHT22;6233;51.560;9.986;2023-02-27T12:38:13;4.50;99.90
12335;DHT22;6233;51.560;9.986;2023-02-27T12:44:33;4.10;99.90
12335;DHT22;6233;51.560;9.986;2023-02-27T12:47:51;4.00;99.90
12335;DHT22;6233;51.560;9.986;2023-02-27T13:04:47;4.70;99.90
12335;DHT22;6233;51.560;9.986;2023-02-27T13:08:08;4.60;99.90
12335;DHT22;6233;51.560;9.986;2023-02-27T13:18:06;3.90;99.90
12335;DHT22;6233;51.560;9.986;2023-02-27T13:21:33;3.90;99.90
12335;DHT22;6233;51.560;9.986;2023-02-27T13:24:42;3.90;99.90
12335;DHT22;6233;51.560;9.986;2023-02-27T13:27:48;3.90;99.90
12335;DHT22;6233;51.560;9.986;2023-02-27T13:30:56;3.90;99.90
12335;DHT22;6233;51.560;9.986;2023-02-27T13:34:21;4.00;99.90
12335;DHT22;6233;51.560;9.986;2023-02-27T13:40:54;3.90;99.90
12335;DHT22;6233;51.560;9.986;2023-02-27T13:43:57;4.00;99.90
12335;DHT22;6233;51.560;9.986;2023-02-27T13:53:31;4.40;99.90
12335;DHT22;6233;51.560;9.986;2023-02-27T13:56:33;4.30;99.90
12335;DHT22;6233;51.560;9.986;2023-02-27T13:59:37;4.20;99.90
12335;DHT22;6233;51.560;9.986;2023-02-27T14:02:41;3.90;99.90
12335;DHT22;6233;51.560;9.986;2023-02-27T14:06:02;3.90;99.90
12335;DHT22;6233;51.560;9.986;2023-02-27T14:09:09;3.80;99.90
12335;DHT22;6233;51.560;9.986;2023-02-27T14:12:32;3.60;99.90
12335;DHT22;6233;51.560;9.986;2023-02-27T14:18:53;3.60;99.90
12335;DHT22;6233;51.560;9.986;2023-02-27T14:25:27;3.70;99.90
12335;DHT22;6233;51.560;9.986;2023-02-27T14:28:48;3.70;99.90
12335;DHT22;6233;51.560;9.986;2023-02-27T14:31:55;3.70;99.90
12335;DHT22;6233;51.560;9.986;2023-02-27T14:35:20;3.70;99.90
12335;DHT22;6233;51.560;9.986;2023-02-27T14:38:23;3.60;99.90
12335;DHT22;6233;51.560;9.986;2023-02-27T14:41:37;3.60;99.90
12335;DHT22;6233;51.560;9.986;2023-02-27T14:44:45;3.60;99.90
12335;DHT22;6233;51.560;9.986;2023-02-27T14:47:47;3.50;99.90
12335;DHT22;6233;51.560;9.986;2023-02-27T14:50:51;3.50;99.90
12335;DHT22;6233;51.560;9.986;2023-02-27T14:54:11;3.60;99.90
12335;DHT22;6233;51.560;9.986;2023-02-27T14:57:24;3.50;99.90
12335;DHT22;6233;51.560;9.986;2023-02-27T15:03:49;3.30;99.90
12335;DHT22;6233;51.560;9.986;2023-02-27T15:06:54;3.20;99.90
12335;DHT22;6233;51.560;9.986;2023-02-27T15:09:58;3.10;99.90
12335;DHT22;6233;51.560;9.986;2023-02-27T15:13:03;3.10;99.90
12335;DHT22;6233;51.560;9.986;2023-02-27T15:19:26;3.10;99.90
12335;DHT22;6233;51.560;9.986;2023-02-27T15:22:29;3.10;99.90
12335;DHT22;6233;51.560;9.986;2023-02-27T15:25:40;3.10;99.90
12335;DHT22;6233;51.560;9.986;2023-02-27T15:28:42;2.90;99.90
12335;DHT22;6233;51.560;9.986;2023-02-27T15:31:44;2.90;99.90
12335;DHT22;6233;51.560;9.986;2023-02-27T15:34:47;2.90;99.90
12335;DHT22;6233;51.560;9.986;2023-02-27T15:37:57;2.90;99.90
12335;DHT22;6233;51.560;9.986;2023-02-27T15:41:01;2.90;99.90
12335;DHT22;6233;51.560;9.986;2023-02-27T15:44:03;2.90;99.90
12335;DHT22;6233;51.560;9.986;2023-02-27T15:47:06;2.90;99.90
12335;DHT22;6233;51.560;9.986;2023-02-27T15:50:33;2.90;99.90
12335;DHT22;6233;51.560;9.986;2023-02-27T15:53:36;2.90;99.90
12335;DHT22;6233;51.560;9.986;2023-02-27T15:56:38;2.90;99.90
12335;DHT22;6233;51.560;9.986;2023-02-27T15:59:42;2.90;99.90
12335;DHT22;6233;51.560;9.986;2023-02-27T16:02:50;2.90;99.90
12335;DHT22;6233;51.560;9.986;2023-02-27T16:05:53;2.90;99.90
12335;DHT22;6233;51.560;9.986;2023-02-27T16:12:29;2.90;99.90
12335;DHT22;6233;51.560;9.986;2023-02-27T16:15:34;2.80;99.90
12335;DHT22;6233;51.560;9.986;2023-02-27T16:18:48;2.70;99.90
12335;DHT22;6233;51.560;9.986;2023-02-27T16:25:17;2.70;99.90
12335;DHT22;6233;51.560;9.986;2023-02-27T16:28:19;2.70;99.90
12335;DHT22;6233;51.560;9.986;2023-02-27T16:31:36;2.60;99.90
12335;DHT22;6233;51.560;9.986;2023-02-27T16:34:39;2.50;99.90
12335;DHT22;6233;51.560;9.986;2023-02-27T16:37:46;2.60;99.90
12335;DHT22;6233;51.560;9.986;2023-02-27T16:40:48;2.50;99.90
12335;DHT22;6233;51.560;9.986;2023-02-27T16:43:51;2.40;99.90
12335;DHT22;6233;51.560;9.986;2023-02-27T16:46:55;2.40;99.90
12335;DHT22;6233;51.560;9.986;2023-02-27T16:49:57;2.40;99.90
12335;DHT22;6233;51.560;9.986;2023-02-27T16:52:58;2.30;99.90
12335;DHT22;6233;51.560;9.986;2023-02-27T16:56:00;2.20;99.90
12335;DHT22;6233;51.560;9.986;2023-02-27T16:59:02;2.20;99.90
12335;DHT22;6233;51.560;9.986;2023-02-27T17:02:09;2.20;99.90
12335;DHT22;6233;51.560;9.986;2023-02-27T17:05:11;2.20;99.90
12335;DHT22;6233;51.560;9.986;2023-02-27T17:08:15;2.20;99.90
12335;DHT22;6233;51.560;9.986;2023-02-27T17:11:17;2.20;99.90
12335;DHT22;6233;51.560;9.986;2023-02-27T17:14:19;2.20;99.90
12335;DHT22;6233;51.560;9.986;2023-02-27T17:17:20;2.10;99.90
12335;DHT22;6233;51.560;9.986;2023-02-27T17:20:22;2.10;99.90
12335;DHT22;6233;51.560;9.986;2023-02-27T17:23:26;2.10;99.90
12335;DHT22;6233;51.560;9.986;2023-02-27T17:26:28;2.10;99.90
12335;DHT22;6233;51.560;9.986;2023-02-27T17:29:42;2.20;99.90
12335;DHT22;6233;51.560;9.986;2023-02-27T17:32:43;2.10;99.90
12335;DHT22;6233;51.560;9.986;2023-02-27T17:35:45;2.10;99.90
12335;DHT22;6233;51.560;9.986;2023-02-27T17:38:47;2.10;99.90
12335;DHT22;6233;51.560;9.986;2023-02-27T17:41:49;2.10;99.90
12335;DHT22;6233;51.560;9.986;2023-02-27T17:44:53;2.10;99.90
12335;DHT22;6233;51.560;9.986;2023-02-27T17:47:55;2.10;99.90
12335;DHT22;6233;51.560;9.986;2023-02-27T17:51:09;2.10;99.90
12335;DHT22;6233;51.560;9.986;2023-02-27T17:54:12;2.10;99.90
12335;DHT22;6233;51.560;9.986;2023-02-27T17:57:13;2.10;99.90
12335;DHT22;6233;51.560;9.986;2023-02-27T18:00:17;2.10;99.90
12335;DHT22;6233;51.560;9.986;2023-02-27T18:03:19;2.10;99.90
12335;DHT22;6233;51.560;9.986;2023-02-27T18:06:22;2.10;99.90
12335;DHT22;6233;51.560;9.986;2023-02-27T18:09:24;2.00;99.90
12335;DHT22;6233;51.560;9.986;2023-02-27T18:12:25;2.00;99.90
12335;DHT22;6233;51.560;9.986;2023-02-27T18:15:27;2.00;99.90
12335;DHT22;6233;51.560;9.986;2023-02-27T18:18:29;2.00;99.90
12335;DHT22;6233;51.560;9.986;2023-02-27T18:21:32;1.90;99.90
12335;DHT22;6233;51.560;9.986;2023-02-27T18:24:35;1.90;99.90
12335;DHT22;6233;51.560;9.986;2023-02-27T18:27:37;1.90;99.90
12335;DHT22;6233;51.560;9.986;2023-02-27T18:30:39;1.90;99.90
12335;DHT22;6233;51.560;9.986;2023-02-27T18:33:41;1.90;99.90
12335;DHT22;6233;51.560;9.986;2023-02-27T18:36:44;1.90;99.90
12335;DHT22;6233;51.560;9.986;2023-02-27T18:39:46;1.90;99.90
12335;DHT22;6233;51.560;9.986;2023-02-27T18:42:48;1.90;99.90
12335;DHT22;6233;51.560;9.986;2023-02-27T18:45:54;1.80;99.90
12335;DHT22;6233;51.560;9.986;2023-02-27T18:48:56;1.80;99.90
12335;DHT22;6233;51.560;9.986;2023-02-27T18:51:57;1.70;99.90
12335;DHT22;6233;51.560;9.986;2023-02-27T18:54:59;1.60;99.90
12335;DHT22;6233;51.560;9.986;2023-02-27T18:58:01;1.60;99.90
12335;DHT22;6233;51.560;9.986;2023-02-27T19:01:03;1.50;99.90
12335;DHT22;6233;51.560;9.986;2023-02-27T19:04:06;1.40;99.90
12335;DHT22;6233;51.560;9.986;2023-02-27T19:07:08;1.40;99.90
12335;DHT22;6233;51.560;9.986;2023-02-27T19:10:10;1.40;99.90
12335;DHT22;6233;51.560;9.986;2023-02-27T19:13:12;1.30;99.90
12335;DHT22;6233;51.560;9.986;2023-02-27T19:16:14;1.40;99.90
12335;DHT22;6233;51.560;9.986;2023-02-27T19:19:17;1.30;99.90
12335;DHT22;6233;51.560;9.986;2023-02-27T19:22:18;1.30;99.90
12335;DHT22;6233;51.560;9.986;2023-02-27T19:25:21;1.30;99.90
12335;DHT22;6233;51.560;9.986;2023-02-27T19:28:23;1.30;99.90
12335;DHT22;6233;51.560;9.986;2023-02-27T19:31:24;1.30;99.90
12335;DHT22;6233;51.560;9.986;2023-02-27T19:34:26;1.20;99.90
12335;DHT22;6233;51.560;9.986;2023-02-27T19:37:28;1.10;99.90
12335;DHT22;6233;51.560;9.986;2023-02-27T19:40:31;1.10;99.90
12335;DHT22;6233;51.560;9.986;2023-02-27T19:43:37;1.10;99.90
12335;DHT22;6233;51.560;9.986;2023-02-27T19:46:39;1.10;99.90
12335;DHT22;6233;51.560;9.986;2023-02-27T19:49:42;1.20;99.90
12335;DHT22;6233;51.560;9.986;2023-02-27T19:52:44;1.20;99.90
12335;DHT22;6233;51.560;9.986;2023-02-27T19:55:46;1.20;99.90
12335;DHT22;6233;51.560;9.986;2023-02-27T19:58:48;1.20;99.90
12335;DHT22;6233;51.560;9.986;2023-02-27T20:01:50;1.20;99.90
12335;DHT22;6233;51.560;9.986;2023-02-27T20:04:52;1.20;99.90
12335;DHT22;6233;51.560;9.986;2023-02-27T20:07:55;1.10;99.90
12335;DHT22;6233;51.560;9.986;2023-02-27T20:11:04;1.10;99.90
12335;DHT22;6233;51.560;9.986;2023-02-27T20:14:06;1.00;99.90
12335;DHT22;6233;51.560;9.986;2023-02-27T20:17:07;1.00;99.90
12335;DHT22;6233;51.560;9.986;2023-02-27T20:20:10;0.90;99.90
12335;DHT22;6233;51.560;9.986;2023-02-27T20:23:12;0.90;99.90
12335;DHT22;6233;51.560;9.986;2023-02-27T20:29:25;0.90;99.90
12335;DHT22;6233;51.560;9.986;2023-02-27T20:32:27;0.80;99.90
12335;DHT22;6233;51.560;9.986;2023-02-27T20:35:29;0.80;99.90
12335;DHT22;6233;51.560;9.986;2023-02-27T20:38:32;0.80;99.90
12335;DHT22;6233;51.560;9.986;2023-02-27T20:41:34;0.70;99.90
12335;DHT22;6233;51.560;9.986;2023-02-27T20:44:37;0.60;99.90
12335;DHT22;6233;51.560;9.986;2023-02-27T20:47:38;0.60;99.90
12335;DHT22;6233;51.560;9.986;2023-02-27T20:50:40;0.60;99.90
12335;DHT22;6233;51.560;9.986;2023-02-27T20:53:43;0.60;99.90
12335;DHT22;6233;51.560;9.986;2023-02-27T20:56:47;0.60;99.90
12335;DHT22;6233;51.560;9.986;2023-02-27T20:59:48;0.60;99.90
12335;DHT22;6233;51.560;9.986;2023-02-27T21:02:51;0.60;99.90
12335;DHT22;6233;51.560;9.986;2023-02-27T21:05:52;0.50;99.90
12335;DHT22;6233;51.560;9.986;2023-02-27T21:08:55;0.50;99.90
12335;DHT22;6233;51.560;9.986;2023-02-27T21:11:57;0.40;99.90
12335;DHT22;6233;51.560;9.986;2023-02-27T21:14:59;0.50;99.90
12335;DHT22;6233;51.560;9.986;2023-02-27T21:18:00;0.40;99.90
12335;DHT22;6233;51.560;9.986;2023-02-27T21:21:14;0.40;99.90
12335;DHT22;6233;51.560;9.986;2023-02-27T21:24:16;0.40;99.90
12335;DHT22;6233;51.560;9.986;2023-02-27T21:27:18;0.30;99.90
12335;DHT22;6233;51.560;9.986;2023-02-27T21:30:21;0.30;99.90
12335;DHT22;6233;51.560;9.986;2023-02-27T21:33:23;0.30;99.90
12335;DHT22;6233;51.560;9.986;2023-02-27T21:36:27;0.30;99.90
12335;DHT22;6233;51.560;9.986;2023-02-27T21:39:29;0.20;99.90
12335;DHT22;6233;51.560;9.986;2023-02-27T21:42:30;0.10;99.90
12335;DHT22;6233;51.560;9.986;2023-02-27T21:45:35;0.10;99.90
12335;DHT22;6233;51.560;9.986;2023-02-27T21:48:37;0.10;99.90
12335;DHT22;6233;51.560;9.986;2023-02-27T21:51:39;0.20;99.90
12335;DHT22;6233;51.560;9.986;2023-02-27T21:54:41;0.10;99.90
12335;DHT22;6233;51.560;9.986;2023-02-27T21:57:43;0.10;99.90
12335;DHT22;6233;51.560;9.986;2023-02-27T22:00:45;0.00;99.90
12335;DHT22;6233;51.560;9.986;2023-02-27T22:03:49;0.00;99.90
12335;DHT22;6233;51.560;9.986;2023-02-27T22:06:51;0.00;99.90
12335;DHT22;6233;51.560;9.986;2023-02-27T22:09:53;0.00;99.90
12335;DHT22;6233;51.560;9.986;2023-02-27T22:12:55;-0.10;99.90
12335;DHT22;6233;51.560;9.986;2023-02-27T22:16:04;-0.10;99.90
12335;DHT22;6233;51.560;9.986;2023-02-27T22:19:08;0.00;99.90
12335;DHT22;6233;51.560;9.986;2023-02-27T22:22:09;0.00;99.90
12335;DHT22;6233;51.560;9.986;2023-02-27T22:25:11;-0.10;99.90
12335;DHT22;6233;51.560;9.986;2023-02-27T22:28:13;-0.10;99.90
12335;DHT22;6233;51.560;9.986;2023-02-27T22:31:19;-0.10;99.90
12335;DHT22;6233;51.560;9.986;2023-02-27T22:34:21;-0.10;99.90
12335;DHT22;6233;51.560;9.986;2023-02-27T22:37:23;0.00;99.90
12335;DHT22;6233;51.560;9.986;2023-02-27T22:40:25;0.00;99.90
12335;DHT22;6233;51.560;9.986;2023-02-27T22:43:30;-0.10;99.90